Terminal Aerodrome Forecast
Issued by NWS

Home | Current Version | Previous Version | Text Only | Print | Product List | Glossary On
Versions: 1 2 3 4 5 6 7 8 9 10 11 12
000
FTUS45 KMSO 181720
TAFSMN
TAF
KSMN 181720Z 1818/1918 18005KT P6SM -SHRA BKN100
     FM182100 27012G22KT P6SM -SHRA OVC080
     FM190300 VRB04KT P6SM BKN120
      AMD LTD TO CLD VIS AND WIND=

USA.gov is the U.S. government's official web portal to all federal, state and local government web resources and services.